createdAt,value
2022-08-11T00:02:12.755Z,3.17
2022-08-11T00:07:20.211Z,3.20
2022-08-11T00:12:24.737Z,2.93
2022-08-11T00:17:32.713Z,3.30
2022-08-11T00:22:38.475Z,2.70
2022-08-11T00:27:43.572Z,2.80
2022-08-11T00:32:59.168Z,3.47
2022-08-11T00:38:04.294Z,3.30
2022-08-11T00:43:21.376Z,3.13
2022-08-11T00:48:34.641Z,3.77
2022-08-11T00:53:50.262Z,3.23
2022-08-11T00:59:37.901Z,3.40
2022-08-11T01:05:15.477Z,2.80
2022-08-11T01:10:50.400Z,3.23
2022-08-11T01:16:15.489Z,3.20
2022-08-11T01:21:57.090Z,3.10
2022-08-11T01:27:43.396Z,3.47
2022-08-11T01:33:32.774Z,3.20
2022-08-11T01:39:05.218Z,3.27
2022-08-11T01:44:42.789Z,3.87
2022-08-11T01:50:09.917Z,3.23
2022-08-11T01:55:21.121Z,3.90
2022-08-11T02:00:30.633Z,3.50
2022-08-11T02:05:56.331Z,3.30
2022-08-11T02:11:28.650Z,3.10
2022-08-11T02:16:48.173Z,3.60
2022-08-11T02:22:14.872Z,3.00
2022-08-11T02:27:25.236Z,3.53
2022-08-11T02:32:53.499Z,3.67
2022-08-11T02:38:12.873Z,3.90
2022-08-11T02:43:32.050Z,3.30
2022-08-11T02:49:07.047Z,3.30
2022-08-11T02:54:22.564Z,3.13
2022-08-11T02:59:54.276Z,3.60
2022-08-11T03:05:07.328Z,3.87
2022-08-11T03:10:19.512Z,3.90
2022-08-11T03:16:01.420Z,3.77
2022-08-11T03:21:11.380Z,3.60
2022-08-11T03:26:25.817Z,3.00
2022-08-11T03:31:35.629Z,3.80
2022-08-11T03:37:34.875Z,3.80
2022-08-11T03:42:51.252Z,3.33
2022-08-11T03:48:20.931Z,3.50
2022-08-11T03:53:50.405Z,4.10
2022-08-11T03:59:25.982Z,3.40
2022-08-11T04:04:59.893Z,3.50
2022-08-11T04:10:42.007Z,3.60
2022-08-11T04:16:17.276Z,3.60
2022-08-11T04:21:57.321Z,3.70
2022-08-11T04:27:39.132Z,3.47
2022-08-11T04:33:36.510Z,4.03
2022-08-11T04:39:00.067Z,4.03
2022-08-11T04:44:51.964Z,3.57
2022-08-11T04:50:37.731Z,4.00
2022-08-11T04:56:22.222Z,3.93
2022-08-11T05:01:42.900Z,3.90
2022-08-11T05:07:09.197Z,4.57
2022-08-11T05:12:34.975Z,3.90
2022-08-11T05:18:02.692Z,3.63
2022-08-11T05:23:27.928Z,4.00
2022-08-11T05:28:53.442Z,4.87
2022-08-11T05:34:20.520Z,4.37
2022-08-11T05:39:44.402Z,4.50
2022-08-11T05:45:15.574Z,5.40
2022-08-11T05:50:40.762Z,4.20
2022-08-11T05:56:04.612Z,4.27
2022-08-11T06:01:09.393Z,4.60
2022-08-11T06:06:14.535Z,4.10
2022-08-11T06:11:19.271Z,4.03
2022-08-11T06:16:43.858Z,3.73
2022-08-11T06:21:49.514Z,3.10
2022-08-11T06:27:11.663Z,3.80
2022-08-11T06:32:17.673Z,3.33
2022-08-11T06:37:30.389Z,3.10
2022-08-11T06:42:49.311Z,3.50
2022-08-11T06:47:53.727Z,3.70
2022-08-11T06:52:59.329Z,3.63
2022-08-11T06:58:22.826Z,3.20
2022-08-11T07:03:30.730Z,3.60
2022-08-11T07:09:22.514Z,3.13
2022-08-11T07:14:46.906Z,3.23
2022-08-11T07:20:11.988Z,3.00
2022-08-11T07:25:34.911Z,2.93
2022-08-11T07:30:41.928Z,2.60
2022-08-11T07:35:51.010Z,2.50
2022-08-11T07:41:00.831Z,2.57
2022-08-11T07:46:23.151Z,2.80
2022-08-11T07:51:44.634Z,3.40
2022-08-11T07:57:07.465Z,2.50
2022-08-11T08:02:31.739Z,2.70
2022-08-11T08:07:56.132Z,2.07
2022-08-11T08:13:19.911Z,2.17
2022-08-11T08:18:27.631Z,2.10
2022-08-11T08:23:34.473Z,1.90
2022-08-11T08:28:40.970Z,1.80
2022-08-11T08:33:44.821Z,1.60
2022-08-11T08:38:51.445Z,1.80
2022-08-11T08:44:27.640Z,1.60
2022-08-11T08:49:35.222Z,1.43
2022-08-11T08:54:47.390Z,1.90
2022-08-11T08:59:53.174Z,1.90
2022-08-11T09:04:58.646Z,2.50
2022-08-11T09:10:03.147Z,2.17
2022-08-11T09:15:12.032Z,2.13
2022-08-11T09:20:19.981Z,2.40
2022-08-11T09:25:45.127Z,2.07
2022-08-11T09:30:55.440Z,2.40
2022-08-11T09:36:22.263Z,2.27
2022-08-11T09:41:26.408Z,2.00
2022-08-11T09:47:19.858Z,2.30
2022-08-11T09:52:25.957Z,1.97
2022-08-11T09:57:47.978Z,1.80
2022-08-11T10:02:57.004Z,2.00
2022-08-11T10:08:02.099Z,2.30
2022-08-11T10:14:31.296Z,2.00
2022-08-11T10:18:49.641Z,1.90
2022-08-11T10:24:12.367Z,2.13
2022-08-11T10:29:37.473Z,2.50
2022-08-11T10:34:54.586Z,2.00
2022-08-11T10:40:03.540Z,2.13
2022-08-11T10:45:30.311Z,2.30
2022-08-11T10:50:53.407Z,2.13
2022-08-11T10:56:16.070Z,1.90
2022-08-11T11:01:32.671Z,2.27
2022-08-11T11:06:47.722Z,2.00
2022-08-11T11:12:12.235Z,1.63
2022-08-11T11:17:38.901Z,2.00
2022-08-11T11:22:48.234Z,1.87
2022-08-11T11:28:07.372Z,2.20
2022-08-11T11:33:19.723Z,1.87
2022-08-11T11:38:25.349Z,1.83
2022-08-11T11:43:29.326Z,2.00
2022-08-11T11:48:33.700Z,1.87
2022-08-11T11:53:38.736Z,2.07
2022-08-11T11:59:00.758Z,2.00
2022-08-11T12:04:07.364Z,2.07
2022-08-11T12:09:14.963Z,2.10
2022-08-11T12:14:20.603Z,2.30
2022-08-11T12:19:28.818Z,2.10
2022-08-11T12:24:59.385Z,2.17
2022-08-11T12:30:08.571Z,2.10
2022-08-11T12:35:17.022Z,2.20
2022-08-11T12:41:12.134Z,2.20
2022-08-11T12:46:11.530Z,1.83
2022-08-11T12:52:02.994Z,2.13
2022-08-11T12:57:37.386Z,2.10
2022-08-11T13:03:00.076Z,1.90
2022-08-11T13:08:04.829Z,1.97
2022-08-11T13:13:52.672Z,1.57
2022-08-11T13:18:35.676Z,1.90
2022-08-11T13:23:41.104Z,2.37
2022-08-11T13:29:06.197Z,1.60
2022-08-11T13:34:10.967Z,2.13
2022-08-11T13:39:15.408Z,2.20
2022-08-11T13:44:25.606Z,2.17
2022-08-11T13:49:31.664Z,1.50
2022-08-11T13:54:38.470Z,1.90
2022-08-11T13:59:52.068Z,1.80
2022-08-11T14:04:58.670Z,2.00
2022-08-11T14:10:04.338Z,1.60
2022-08-11T14:15:20.203Z,1.60
2022-08-11T14:20:38.084Z,1.70
2022-08-11T14:26:04.858Z,1.90
2022-08-11T14:31:10.821Z,1.70
2022-08-11T14:36:15.020Z,1.80
2022-08-11T14:41:37.253Z,1.30
2022-08-11T14:47:24.130Z,1.33
2022-08-11T14:52:30.543Z,1.67
2022-08-11T14:58:04.815Z,2.70
2022-08-11T15:03:14.339Z,1.77
2022-08-11T15:08:19.359Z,1.70
2022-08-11T15:13:23.065Z,1.90
2022-08-11T15:18:28.427Z,1.80
2022-08-11T15:23:55.779Z,1.83
2022-08-11T15:29:19.466Z,1.80
2022-08-11T15:34:47.903Z,1.67
2022-08-11T15:40:30.141Z,1.90
2022-08-11T15:45:49.235Z,1.80
2022-08-11T15:51:00.032Z,1.70
2022-08-11T15:56:05.271Z,1.77
2022-08-11T16:01:27.722Z,1.57
2022-08-11T16:06:34.981Z,2.03
2022-08-11T16:11:40.841Z,1.80
2022-08-11T16:16:46.698Z,2.47
2022-08-11T16:21:53.822Z,1.80
2022-08-11T16:27:11.084Z,1.67
2022-08-11T16:32:21.218Z,2.27
2022-08-11T16:37:45.408Z,1.90
2022-08-11T16:43:11.409Z,1.70
2022-08-11T16:48:35.671Z,1.73
2022-08-11T16:53:46.036Z,1.97
2022-08-11T16:59:18.019Z,1.70
2022-08-11T17:04:46.741Z,1.80
2022-08-11T17:10:39.066Z,1.80
2022-08-11T17:15:56.009Z,1.40
2022-08-11T17:20:59.951Z,2.10
2022-08-11T17:26:58.884Z,2.10
2022-08-11T17:32:23.237Z,1.50
2022-08-11T17:37:33.236Z,1.67
2022-08-11T17:42:58.005Z,2.00
2022-08-11T17:48:21.223Z,1.67
2022-08-11T17:54:10.008Z,1.80
2022-08-11T17:59:32.354Z,1.70
2022-08-11T18:04:36.454Z,1.83
2022-08-11T18:09:57.787Z,2.03
2022-08-11T18:15:22.638Z,1.93
2022-08-11T18:20:54.276Z,1.67
2022-08-11T18:26:19.424Z,1.97
2022-08-11T18:31:43.842Z,1.70
2022-08-11T18:37:11.234Z,1.83
2022-08-11T18:42:42.310Z,1.97
2022-08-11T18:48:07.210Z,1.83
2022-08-11T18:53:31.982Z,1.50
2022-08-11T18:58:55.636Z,1.73
2022-08-11T19:04:20.829Z,2.10
2022-08-11T19:09:42.823Z,1.67
2022-08-11T19:15:06.560Z,1.73
2022-08-11T19:20:32.014Z,1.90
2022-08-11T19:25:54.639Z,1.77
2022-08-11T19:31:16.232Z,2.07
2022-08-11T19:36:40.496Z,1.73
2022-08-11T19:42:03.036Z,2.40
2022-08-11T19:47:25.360Z,2.13
2022-08-11T19:52:53.396Z,2.20
2022-08-11T19:58:15.772Z,2.07
2022-08-11T20:03:37.174Z,2.10
2022-08-11T20:09:02.495Z,2.10
2022-08-11T20:14:25.489Z,1.97
2022-08-11T20:19:55.031Z,2.27
2022-08-11T20:25:19.613Z,2.43
2022-08-11T20:30:41.565Z,2.30
2022-08-11T20:36:02.832Z,2.00
2022-08-11T20:41:27.643Z,2.10
2022-08-11T20:46:50.216Z,2.10
2022-08-11T20:52:11.926Z,2.40
2022-08-11T20:58:00.073Z,2.40
2022-08-11T21:03:35.875Z,2.53
2022-08-11T21:08:59.862Z,2.17
2022-08-11T21:14:26.665Z,2.00
2022-08-11T21:20:01.691Z,2.00
2022-08-11T21:25:31.288Z,2.80
2022-08-11T21:30:56.336Z,2.60
2022-08-11T21:36:21.135Z,2.30
2022-08-11T21:41:42.357Z,2.40
2022-08-11T21:47:15.586Z,2.50
2022-08-11T21:52:39.352Z,1.90
2022-08-11T21:58:02.282Z,1.90
2022-08-11T22:03:25.147Z,2.10
2022-08-11T22:08:47.623Z,2.13
2022-08-11T22:14:08.805Z,2.40
2022-08-11T22:19:33.140Z,2.33
2022-08-11T22:24:56.312Z,2.67
2022-08-11T22:30:18.608Z,2.43
2022-08-11T22:35:41.919Z,1.93
2022-08-11T22:41:03.456Z,2.50
2022-08-11T22:46:24.714Z,2.50
2022-08-11T22:51:48.667Z,2.20
2022-08-11T22:57:10.082Z,3.40
2022-08-11T23:02:32.091Z,2.43
2022-08-11T23:07:55.903Z,2.50
2022-08-11T23:13:22.306Z,2.40
2022-08-11T23:18:44.787Z,2.40
2022-08-11T23:24:08.642Z,2.60
2022-08-11T23:29:30.537Z,2.60
2022-08-11T23:35:04.473Z,2.50
2022-08-11T23:40:37.952Z,2.97
2022-08-11T23:45:59.224Z,2.50
2022-08-11T23:51:21.368Z,2.20
2022-08-11T23:56:43.907Z,2.60
